• Join FlightAware (Why Join?)
  • Login
  • US Flag 
Rudolph Flight #1: Arrived! 
04:04PM EST


 

Airport Tracker/Info


-or-


 

Live Flight TrackerFlight Track Log ✈ CHQ5041 ✈ 02-May-2013 ✈ KMKE - KORD

Flight Track Log - Related Links

Times and Time Zones

All times are in EDT time to prevent confusion due to time zone crossing. See the CHQ5041 flight status page for this flight to view local times or setup timezone preferences in your user account.

Time Position Orientation Groundspeed Altitude Reporting Facility
EDT Latitude Longitude Course Direction KTS MPH feet Rate Location/Type
09:00PM 42.9500 -87.9000 183° South 146 168 1,400  Level KMKE
09:00PM 42.9667 -87.8833 36° Northeast 152 175 2,200 2,340 Climbing KMKE
09:01PM 42.9667 -87.8333 90° East 220 253 4,500 2,400 Climbing KMKE
09:02PM 42.9547 -87.7839 108° East 213 245 6,200 1,500 Climbing Chicago Center
09:03PM 42.8158 -87.8984 180° South  Level Estimated
09:03PM 42.9292 -87.6997 112° Southeast 236 272 7,100  Level Chicago Center
09:04PM 42.7831 -87.8987 180° South  Level Estimated
09:04PM 42.8681 -87.6725 162° South 251 289 7,000  Level Chicago Center
09:05PM 42.7503 -87.8990 183° South  Level Estimated
09:05PM 42.8003 -87.6697 178° South 246 283 7,100  Level Chicago Center
09:06PM 42.7206 -87.6658 178° South 244 281 7,100  Level Chicago Center
09:07PM 42.6511 -87.6650 179° South 247 284 7,100 -60 Level Chicago Center
09:08PM 42.5819 -87.6611 178° South 247 284 7,000 -60 Descending Chicago Center
09:09PM 42.5133 -87.6572 178° South 248 285 7,000  Level Chicago Center
09:10PM 42.4433 -87.6586 181° South 249 287 7,000  Level Chicago Center
09:11PM 42.3781 -87.6294 162° South 252 290 7,000  Level Chicago Center
09:12PM 42.3111 -87.5911 157° South 248 285 7,000  Level Chicago Center
09:13PM 42.2514 -87.6403 211° Southwest 261 300 7,000  Level Chicago Center
09:14PM 42.1886 -87.7158 222° Southwest 254 292 7,000  Level Chicago Center
09:15PM 42.1342 -87.7806 221° Southwest 261 300 7,000  Level Chicago Center
09:16PM 42.0833 -87.8667 232° Southwest 270 311 7,000  Level Chicago TRACON
09:17PM 42.0500 -87.9500 242° Southwest 287 330 7,000 -180 Level Chicago TRACON
09:18PM 42.0500 -88.0667 270° West 273 314 6,700 -540 Descending Chicago TRACON
09:19PM 42.0667 -88.1667 283° West 280 322 6,000 -660 Descending Chicago TRACON
09:20PM 42.0500 -88.2667 257° West 270 311 5,400 -480 Descending Chicago TRACON
09:21PM 41.9986 -88.3025 207° Southwest 254 292 5,000 -480 Descending Chicago Center
09:22PM 41.9656 -88.2553 133° Southeast 221 254 4,400 -540 Descending Chicago Center
09:23PM 41.9681 -88.1758 88° East 221 254 4,000 -600 Descending Chicago Center
09:24PM 41.9667 -88.1000 91° East 187 215 3,300 -900 Descending Chicago TRACON